Nearby METAR Reports

 

EGNV - Tees-Side, United Kingdom
Distance from station: W 8mi, 13km
Updated: 23/10/2017 23:20
NOT Current
Partly cloudy
Partly cloudy
 Wind from SSW
Wind: SSW 10 mph , 17 km/h
Temperature: 13°C
Dew Point: 11°C
Humidity: 88%
Barometer: 1013 hPa
Clouds: Partly cloudy
Visibility: 5 miles , 8 km
2017/10/23 22:20 EGNV 232220Z 21009KT 8000 NSC 13/11 Q1013
EGXE - Leeming Raf, United Kingdom
Distance from station: SW 21mi, 34km
Updated: 24/10/2017 03:50
Mostly cloudy
Mostly cloudy
 Wind from SSW
Wind: SSW 13 mph , 20 km/h
Temperature: 13°C
Dew Point: 10°C
Humidity: 82%
Barometer: 1012 hPa
Clouds: Mostly cloudy
Visibility: 6 miles , 10 km
Cloud details: Mostly cloudy 671 m
Mostly cloudy 3353 m
2017/10/24 02:50 EGXE 240250Z AUTO 20011KT 9999 BKN022/// BKN110/// 13/10 Q1012
 
EGXZ - Topcliffe Raf, United Kingdom
Distance from station: SSW 24mi, 38km
Updated: 24/10/2017 03:50
Mostly cloudy
Mostly cloudy
 Wind from S
Wind: S 8 mph , 13 km/h
Temperature: 13°C
Dew Point: 11°C
Humidity: 88%
Barometer: 1013 hPa
Clouds: Mostly cloudy
Visibility: 6 miles , 10 km
Cloud details: Mostly cloudy 671 m
Mostly cloudy 3658 m
2017/10/24 02:50 EGXZ 240250Z AUTO 19007KT 9999 BKN022/// BKN120/// 13/11 Q1013
EGXD - Dishforth Raf, United Kingdom
Distance from station: SSW 29mi, 46km
Updated: 06/06/2016 10:50
NOT Current
Clear
Clear
 Wind from SSE
Wind: SSE 5 mph , 7 km/h
Temperature: 18°C
Dew Point: 11°C
Humidity: 64%
Barometer: 1023 hPa
Clouds: Clear
Visibility: 6 miles , 10 km
2016/06/06 09:50 EGXD 060950Z AUTO 16004KT 9999 // NCD 18/11 Q1023
 
EGXU - Linton-On-Ouse R, United Kingdom
Distance from station: S 33mi, 53km
Updated: 24/10/2017 03:50
Mostly cloudy
Mostly cloudy
 Wind from SSW
Wind: SSW 6 mph , 9 km/h
Temperature: 12°C
Dew Point: 10°C
Humidity: 88%
Barometer: 1013 hPa
Clouds: Mostly cloudy
Visibility: 6 miles , 10 km
Cloud details: Few Clouds 792 m
Mostly cloudy 3658 m
2017/10/24 02:50 EGXU 240250Z AUTO 21005KT 9999 // FEW026/// BKN120/// 12/10 Q1013
EGNT - Newcastle, United Kingdom
Distance from station: NNW 39mi, 63km
Updated: 24/10/2017 04:20
Few Clouds
Few Clouds
 Wind from varies
Wind: varies 3 mph , 6 km/h
Temperature: 12°C
Dew Point: 10°C
Humidity: 88%
Barometer: 1010 hPa
Clouds: Few Clouds
Visibility: 6 miles , 10 km
Cloud details: Few Clouds 762 m
2017/10/24 03:20 EGNT 240320Z VRB03KT 9999 FEW025 12/10 Q1010
 
EGNM - Leeds And Bradfo, United Kingdom
Distance from station: SSW 49mi, 79km
Updated: 24/10/2017 04:20
Clear
Clear
 Wind from SW
Wind: SW 8 mph , 13 km/h
Temperature: 11°C
Dew Point: 10°C
Humidity: 94%
Barometer: 1013 hPa
Summary: Clear
Visibility: greater than 7 miles , 10 km
2017/10/24 03:20 EGNM 240320Z 23007KT 200V260 CAVOK 11/10 Q1013